createdAt,value
2023-02-09T00:01:50.086Z,2.53
2023-02-09T00:07:11.870Z,3.78
2023-02-09T00:12:51.840Z,3.70
2023-02-09T00:18:13.557Z,8.45
2023-02-09T00:23:37.946Z,7.57
2023-02-09T00:28:59.919Z,4.85
2023-02-09T00:34:21.649Z,3.40
2023-02-09T00:39:43.503Z,3.53
2023-02-09T00:45:05.826Z,5.80
2023-02-09T00:50:29.127Z,4.38
2023-02-09T00:55:51.348Z,3.72
2023-02-09T01:01:13.702Z,4.80
2023-02-09T01:06:35.541Z,3.45
2023-02-09T01:11:57.572Z,2.50
2023-02-09T01:17:20.209Z,2.58
2023-02-09T01:22:42.203Z,2.65
2023-02-09T01:28:03.911Z,5.45
2023-02-09T01:33:25.682Z,2.13
2023-02-09T01:38:47.783Z,3.60
2023-02-09T01:44:12.292Z,2.20
2023-02-09T01:49:34.118Z,1.75
2023-02-09T01:55:04.427Z,1.95
2023-02-09T02:00:26.458Z,2.13
2023-02-09T02:05:53.761Z,2.10
2023-02-09T02:11:16.613Z,1.80
2023-02-09T02:17:07.309Z,2.60
2023-02-09T02:23:06.450Z,2.00
2023-02-09T02:28:45.740Z,1.88
2023-02-09T02:34:15.594Z,1.40
2023-02-09T02:39:44.990Z,1.15
2023-02-09T02:45:20.013Z,2.20
2023-02-09T02:50:48.811Z,1.67
2023-02-09T02:56:21.035Z,1.92
2023-02-09T03:01:50.088Z,1.98
2023-02-09T03:07:11.805Z,2.03
2023-02-09T03:12:49.822Z,1.95
2023-02-09T03:18:43.733Z,1.80
2023-02-09T03:24:18.045Z,1.77
2023-02-09T03:29:44.087Z,2.00
2023-02-09T03:35:08.517Z,1.02
2023-02-09T03:40:30.238Z,2.08
2023-02-09T03:45:52.255Z,2.63
2023-02-09T03:51:14.449Z,1.60
2023-02-09T03:56:37.743Z,1.67
2023-02-09T04:01:59.565Z,1.30
2023-02-09T04:07:21.258Z,1.42
2023-02-09T04:12:43.002Z,1.83
2023-02-09T04:18:04.748Z,1.88
2023-02-09T04:23:26.516Z,1.52
2023-02-09T04:28:48.328Z,1.10
2023-02-09T04:34:10.093Z,1.10
2023-02-09T04:39:32.088Z,1.38
2023-02-09T04:44:53.781Z,1.45
2023-02-09T04:50:15.625Z,2.15
2023-02-09T04:55:41.394Z,1.40
2023-02-09T05:01:04.660Z,1.15
2023-02-09T05:06:26.463Z,1.40
2023-02-09T05:11:48.261Z,1.20
2023-02-09T05:17:09.957Z,1.13
2023-02-09T05:22:31.621Z,1.42
2023-02-09T05:27:53.349Z,1.33
2023-02-09T05:33:15.058Z,1.45
2023-02-09T05:38:37.035Z,1.63
2023-02-09T05:43:58.835Z,0.95
2023-02-09T05:49:20.582Z,1.40
2023-02-09T05:54:42.608Z,1.15
2023-02-09T06:00:06.225Z,0.75
2023-02-09T06:05:28.294Z,0.80
2023-02-09T06:10:49.953Z,0.93
2023-02-09T06:16:11.777Z,1.10
2023-02-09T06:21:33.689Z,4.85
2023-02-09T06:26:56.493Z,12.05
2023-02-09T06:32:18.474Z,7.10
2023-02-09T06:37:40.266Z,10.43
2023-02-09T06:43:02.118Z,10.93
2023-02-09T06:48:23.934Z,4.32
2023-02-09T06:53:46.105Z,5.78
2023-02-09T06:59:07.840Z,5.95
2023-02-09T07:04:29.588Z,7.80
2023-02-09T07:09:51.329Z,4.13
2023-02-09T07:15:14.718Z,4.03
2023-02-09T07:20:36.427Z,5.30
2023-02-09T07:26:02.308Z,2.38
2023-02-09T07:31:24.260Z,6.82
2023-02-09T07:36:47.771Z,3.58
2023-02-09T07:42:09.808Z,4.20
2023-02-09T07:47:31.564Z,3.83
2023-02-09T07:52:54.620Z,2.67
2023-02-09T07:58:18.433Z,3.53
2023-02-09T08:03:43.148Z,3.50
2023-02-09T08:09:05.397Z,3.13
2023-02-09T08:14:35.979Z,2.20
2023-02-09T08:20:08.861Z,4.00
2023-02-09T08:25:30.617Z,8.40
2023-02-09T08:30:52.520Z,6.55
2023-02-09T08:36:14.999Z,6.50
2023-02-09T08:41:36.702Z,4.65
2023-02-09T08:46:58.612Z,3.17
2023-02-09T08:52:20.424Z,4.93
2023-02-09T08:57:44.671Z,3.15
2023-02-09T09:03:06.544Z,3.85
2023-02-09T09:08:29.017Z,2.10
2023-02-09T09:13:50.884Z,2.38
2023-02-09T09:19:12.762Z,5.68
2023-02-09T09:24:40.658Z,5.38
2023-02-09T09:30:04.704Z,2.35
2023-02-09T09:35:29.421Z,6.80
2023-02-09T09:40:51.179Z,2.67
2023-02-09T09:46:21.009Z,2.78
2023-02-09T09:51:46.522Z,1.98
2023-02-09T09:57:29.923Z,4.63
2023-02-09T10:02:52.312Z,2.40
2023-02-09T10:08:30.334Z,3.63
2023-02-09T10:13:55.161Z,2.70
2023-02-09T10:19:20.845Z,2.47
2023-02-09T10:24:42.650Z,2.20
2023-02-09T10:30:28.700Z,2.08
2023-02-09T10:36:01.296Z,1.60
2023-02-09T10:41:23.072Z,2.22
2023-02-09T10:46:47.187Z,1.92
2023-02-09T10:52:19.744Z,1.70
2023-02-09T10:57:41.607Z,1.77
2023-02-09T11:03:03.554Z,2.28
2023-02-09T11:08:32.194Z,2.33
2023-02-09T11:13:54.802Z,2.78
2023-02-09T11:19:26.079Z,3.78
2023-02-09T11:25:04.963Z,2.92
2023-02-09T11:30:48.517Z,1.98
2023-02-09T11:36:22.585Z,2.10
2023-02-09T11:42:12.703Z,3.08
2023-02-09T11:48:03.998Z,3.03
2023-02-09T11:53:40.999Z,2.78
2023-02-09T11:59:10.072Z,4.13
2023-02-09T12:04:56.327Z,1.63
2023-02-09T12:10:30.413Z,2.22
2023-02-09T12:16:01.323Z,2.55
2023-02-09T12:21:38.410Z,2.65
2023-02-09T12:27:00.461Z,1.50
2023-02-09T12:32:41.281Z,2.25
2023-02-09T12:39:04.069Z,2.10
2023-02-09T12:44:26.174Z,2.75
2023-02-09T12:49:47.937Z,1.50
2023-02-09T12:55:20.530Z,2.10
2023-02-09T13:00:51.535Z,2.80
2023-02-09T13:06:31.810Z,5.47
2023-02-09T13:12:05.845Z,7.57
2023-02-09T13:18:18.383Z,2.65
2023-02-09T13:23:54.794Z,4.32
2023-02-09T13:29:22.660Z,5.57
2023-02-09T13:34:59.238Z,2.88
2023-02-09T13:40:29.682Z,4.85
2023-02-09T13:45:54.816Z,4.28
2023-02-09T13:51:19.351Z,6.07
2023-02-09T13:56:41.938Z,5.40
2023-02-09T14:02:03.696Z,3.17
2023-02-09T14:07:32.558Z,4.18
2023-02-09T14:13:20.632Z,5.80
2023-02-09T14:18:57.183Z,7.80
2023-02-09T14:24:27.096Z,11.98
2023-02-09T14:29:50.388Z,9.05
2023-02-09T14:35:25.360Z,2.97
2023-02-09T14:40:47.122Z,5.75
2023-02-09T14:46:08.929Z,7.05
2023-02-09T14:51:30.699Z,5.60
2023-02-09T14:56:54.716Z,8.80
2023-02-09T15:02:24.041Z,4.63
2023-02-09T15:07:53.204Z,9.15
2023-02-09T15:13:16.115Z,7.18
2023-02-09T15:18:39.409Z,4.90
2023-02-09T15:24:01.321Z,6.28
2023-02-09T15:29:23.016Z,5.60
2023-02-09T15:34:45.481Z,12.27
2023-02-09T15:40:52.745Z,5.03
2023-02-09T15:46:33.727Z,8.82
2023-02-09T15:51:55.531Z,4.43
2023-02-09T15:57:17.218Z,6.32
2023-02-09T16:02:38.898Z,4.28
2023-02-09T16:08:00.679Z,11.75
2023-02-09T16:13:22.856Z,6.32
2023-02-09T16:18:45.300Z,4.97
2023-02-09T16:24:08.230Z,8.38
2023-02-09T16:29:30.028Z,4.95
2023-02-09T16:34:52.100Z,10.25
2023-02-09T16:40:16.924Z,2.88
2023-02-09T16:45:43.180Z,3.83
2023-02-09T16:51:13.900Z,13.80
2023-02-09T16:56:40.914Z,7.88
2023-02-09T17:02:31.321Z,10.30
2023-02-09T17:07:59.759Z,10.80
2023-02-09T17:13:22.078Z,12.13
2023-02-09T17:18:44.605Z,19.95
2023-02-09T17:24:13.390Z,24.48
2023-02-09T17:29:35.267Z,24.75
2023-02-09T17:34:57.108Z,29.30
2023-02-09T17:40:22.428Z,33.85
2023-02-09T17:45:49.270Z,34.80
2023-02-09T17:51:24.116Z,39.17
2023-02-09T17:56:46.696Z,34.70
2023-02-09T18:02:17.222Z,31.35
2023-02-09T18:07:38.951Z,28.52
2023-02-09T18:13:00.611Z,37.50
2023-02-09T18:18:24.312Z,39.95
2023-02-09T18:23:46.190Z,29.38
2023-02-09T18:29:07.868Z,30.67
2023-02-09T18:34:30.281Z,32.38
2023-02-09T18:39:51.967Z,35.05
2023-02-09T18:45:18.817Z,37.08
2023-02-09T18:50:40.560Z,33.80
2023-02-09T18:56:02.467Z,28.75
2023-02-09T19:01:24.949Z,37.13
2023-02-09T19:06:46.734Z,35.38
2023-02-09T19:12:08.554Z,27.63
2023-02-09T19:17:30.328Z,25.85
2023-02-09T19:22:52.880Z,18.55
2023-02-09T19:28:15.695Z,26.77
2023-02-09T19:33:37.676Z,22.20
2023-02-09T19:39:00.754Z,29.15
2023-02-09T19:44:23.740Z,25.60
2023-02-09T19:49:46.579Z,35.65
2023-02-09T19:55:08.738Z,31.17
2023-02-09T20:00:32.017Z,32.00
2023-02-09T20:05:53.854Z,20.60
2023-02-09T20:11:18.053Z,17.85
2023-02-09T20:16:40.300Z,15.20
2023-02-09T20:22:02.066Z,22.27
2023-02-09T20:27:23.889Z,15.75
2023-02-09T20:32:45.681Z,21.83
2023-02-09T20:38:07.700Z,16.70
2023-02-09T20:43:48.244Z,15.68
2023-02-09T20:49:13.161Z,12.18
2023-02-09T20:54:35.719Z,13.52
2023-02-09T21:00:00.876Z,17.77
2023-02-09T21:05:22.940Z,13.30
2023-02-09T21:10:44.657Z,9.18
2023-02-09T21:16:06.494Z,14.07
2023-02-09T21:21:29.587Z,14.80
2023-02-09T21:26:51.493Z,9.82
2023-02-09T21:32:13.342Z,10.65
2023-02-09T21:37:35.034Z,12.23
2023-02-09T21:42:56.852Z,16.05
2023-02-09T21:48:18.664Z,16.73
2023-02-09T21:53:41.638Z,19.88
2023-02-09T21:59:03.597Z,15.90
2023-02-09T22:04:25.994Z,13.70
2023-02-09T22:09:47.889Z,11.52
2023-02-09T22:15:10.076Z,11.27
2023-02-09T22:20:31.808Z,12.18
2023-02-09T22:26:00.524Z,7.05
2023-02-09T22:31:22.617Z,6.88
2023-02-09T22:36:44.358Z,6.75
2023-02-09T22:42:06.148Z,8.27
2023-02-09T22:47:27.837Z,10.00
2023-02-09T22:52:49.544Z,6.03
2023-02-09T22:58:11.320Z,5.65
2023-02-09T23:03:36.466Z,6.72
2023-02-09T23:09:00.786Z,6.60
2023-02-09T23:14:22.598Z,5.70
2023-02-09T23:19:45.079Z,4.05
2023-02-09T23:25:07.341Z,6.15
2023-02-09T23:30:29.378Z,4.68
2023-02-09T23:35:51.046Z,3.70
2023-02-09T23:41:15.816Z,4.55
2023-02-09T23:46:37.890Z,4.07
2023-02-09T23:51:59.953Z,3.05
2023-02-09T23:57:23.706Z,3.25
